首页
METAR-TAF:

METAR-TAF

机场 :

马普托, 莫桑比克

马普托国际机场

纬度: 25-55S, 经度: 032-34E, 海拔: 39米

当前天气观测

该预报发布于1小时和4分钟前的21:00 UTC
风速10节,风向
温度 26°C
湿度 79%
气压 1016 hPa
能见度10公里或以上
多云层高于2000英尺

METAR: FQMA 172100Z 09010KT 9999 BKN020 26/22 Q1016 NOSIG

时间: 00:04 (22:04 UTC)

预报

该预报发布于12小时和4分钟前的10:00 UTC
预报有效从17日的 12点(UTC)到 18日的 18点(UTC)
风速12节,风向东南
能见度10公里或以上
散云层高于2500英尺
成为
从 18日的 00点(UTC)到 18日的 02点(UTC)
风速6节,风向西南
成为
从 18日的 06点(UTC)到 18日的 08点(UTC)
风速10节,风向南转南东
成为
从 18日的 12点(UTC)到 18日的 14点(UTC)
风速12节,风向

TAF: FQMA 171000Z 1712/1818 13012KT 9999 SCT025 BECMG 1800/1802 22006KT BECMG 1806/1808 16010KT BECMG 1812/1814 10012KT TX32/1713Z TN23/1803Z

超过4000个机场的气象观测和天气预报(METAR&TAF报告)。

可查询的气象台以黄色和红色小点在地图上表示。

将鼠标移到小点上方,可查看气象台名称。

然后点击查看天气观测和预报。

如需切换地图:点击带黑十字的绿色按钮放大地图;点击带横线的绿色按钮缩小地图;或者点击绿色箭头查看邻近地区的地图。


METAR-TAF: